Terminal Aerodrome Forecast
Issued by NWS

Home | Current Version | Previous Version | Graphics & Text | Print | Product List | Glossary On
Versions: 1 2 3 4 5 6 7 8 9 10 11 12 13 14 15 16 17 18 19 20 21 22 23
864
FTUS43 KTOP 230539 CCA
TAFFOE
TAF COR
KFOE 230539Z 2306/2406 19003KT P6SM SCT060
      TEMPO 2306/2309 1/4SM FG BKN002
     FM230900 30006KT P6SM VCSH BKN040
     FM231000 33009KT P6SM VCSH BKN050
     FM231500 34014KT P6SM BKN100=

USA.gov is the U.S. government's official web portal to all federal, state and local government web resources and services.